createdAt,value
2022-10-07T00:03:28.133Z,94826.98
2022-10-07T00:08:37.665Z,94824.34
2022-10-07T00:13:48.346Z,94822.17
2022-10-07T00:19:01.381Z,94816.09
2022-10-07T00:24:11.392Z,94809.64
2022-10-07T00:29:20.412Z,94806.89
2022-10-07T00:34:33.126Z,94805.73
2022-10-07T00:39:38.374Z,94795.45
2022-10-07T00:44:49.287Z,94792.48
2022-10-07T00:50:07.399Z,94785.22
2022-10-07T00:55:21.528Z,94780.51
2022-10-07T01:00:31.507Z,94779.17
2022-10-07T01:05:38.904Z,94775.09
2022-10-07T01:11:11.465Z,94765.32
2022-10-07T01:16:31.464Z,94761.12
2022-10-07T01:21:46.607Z,94755.50
2022-10-07T01:27:12.698Z,94753.83
2022-10-07T01:32:31.006Z,94749.24
2022-10-07T01:37:42.531Z,94746.09
2022-10-07T01:42:53.465Z,94741.84
2022-10-07T01:48:02.078Z,94738.70
2022-10-07T01:53:36.023Z,94743.17
2022-10-07T01:58:53.638Z,94739.12
2022-10-07T02:04:38.187Z,94736.79
2022-10-07T02:09:52.082Z,94732.73
2022-10-07T02:15:36.318Z,94723.48
2022-10-07T02:20:49.543Z,94717.56
2022-10-07T02:25:59.868Z,94716.42
2022-10-07T02:31:08.905Z,94713.69
2022-10-07T02:36:21.841Z,94707.50
2022-10-07T02:41:38.192Z,94709.30
2022-10-07T02:46:55.959Z,94718.62
2022-10-07T02:52:09.887Z,94712.98
2022-10-07T02:57:18.105Z,94711.17
2022-10-07T03:02:28.946Z,94715.70
2022-10-07T03:07:36.391Z,94706.11
2022-10-07T03:12:43.884Z,94705.34
2022-10-07T03:17:50.609Z,94707.89
2022-10-07T03:22:57.283Z,94704.65
2022-10-07T03:28:04.092Z,94693.48
2022-10-07T03:33:10.832Z,94700.34
2022-10-07T03:38:18.302Z,94694.70
2022-10-07T03:43:27.221Z,94696.63
2022-10-07T03:48:38.881Z,94694.23
2022-10-07T03:53:45.866Z,94685.70
2022-10-07T03:58:54.706Z,94686.86
2022-10-07T04:04:03.248Z,94676.91
2022-10-07T04:09:12.843Z,94677.86
2022-10-07T04:14:19.647Z,94674.27
2022-10-07T04:19:28.487Z,94672.46
2022-10-07T04:24:35.156Z,94666.35
2022-10-07T04:29:44.008Z,94656.05
2022-10-07T04:34:51.847Z,94657.05
2022-10-07T04:40:01.124Z,94644.86
2022-10-07T04:45:11.505Z,94646.91
2022-10-07T04:50:18.884Z,94648.88
2022-10-07T04:55:28.903Z,94651.09
2022-10-07T05:00:37.631Z,94655.33
2022-10-07T05:05:48.664Z,94646.67
2022-10-07T05:11:04.638Z,94641.66
2022-10-07T05:16:12.434Z,94645.48
2022-10-07T05:21:19.084Z,94638.36
2022-10-07T05:26:27.937Z,94639.16
2022-10-07T05:31:34.690Z,94640.63
2022-10-07T05:36:42.226Z,94640.98
2022-10-07T05:41:50.356Z,94638.67
2022-10-07T05:46:57.068Z,94637.63
2022-10-07T05:52:05.062Z,94634.45
2022-10-07T05:57:11.873Z,94636.38
2022-10-07T06:02:21.285Z,94642.34
2022-10-07T06:07:29.819Z,94645.83
2022-10-07T06:12:54.185Z,94642.70
2022-10-07T06:17:59.712Z,94641.19
2022-10-07T06:23:07.880Z,94648.19
2022-10-07T06:28:16.183Z,94644.52
2022-10-07T06:33:22.901Z,94643.22
2022-10-07T06:38:29.602Z,94638.69
2022-10-07T06:43:37.651Z,94638.96
2022-10-07T06:48:46.562Z,94645.39
2022-10-07T06:53:57.732Z,94643.81
2022-10-07T06:59:04.398Z,94645.77
2022-10-07T07:04:11.101Z,94639.30
2022-10-07T07:09:17.743Z,94636.95
2022-10-07T07:14:25.982Z,94634.78
2022-10-07T07:19:33.797Z,94628.36
2022-10-07T07:24:40.537Z,94631.30
2022-10-07T07:29:48.799Z,94632.08
2022-10-07T07:34:56.572Z,94635.55
2022-10-07T07:40:03.400Z,94636.89
2022-10-07T07:45:10.725Z,94635.03
2022-10-07T07:50:20.928Z,94632.38
2022-10-07T07:55:27.645Z,94617.20
2022-10-07T08:00:35.728Z,94618.50
2022-10-07T08:05:42.407Z,94613.42
2022-10-07T08:10:52.035Z,94606.98
2022-10-07T08:16:00.444Z,94612.83
2022-10-07T08:21:08.611Z,94603.44
2022-10-07T08:26:15.392Z,94607.60
2022-10-07T08:31:23.937Z,94610.20
2022-10-07T08:36:36.217Z,94594.95
2022-10-07T08:41:56.345Z,94590.19
2022-10-07T08:47:19.060Z,94593.14
2022-10-07T08:52:51.014Z,94591.13
2022-10-07T08:58:20.321Z,94580.73
2022-10-07T09:03:46.809Z,94579.98
2022-10-07T09:08:57.999Z,94572.34
2022-10-07T09:14:12.039Z,94568.67
2022-10-07T09:19:41.575Z,94565.27
2022-10-07T09:24:51.641Z,94552.86
2022-10-07T09:30:32.748Z,94554.19
2022-10-07T09:35:39.532Z,94545.31
2022-10-07T09:41:08.313Z,94544.73
2022-10-07T09:46:35.914Z,94536.61
2022-10-07T09:51:50.051Z,94537.50
2022-10-07T09:57:04.379Z,94530.45
2022-10-07T10:02:27.965Z,94530.69
2022-10-07T10:07:39.528Z,94518.03
2022-10-07T10:12:53.627Z,94515.57
2022-10-07T10:18:02.249Z,94512.06
2022-10-07T10:23:35.754Z,94509.91
2022-10-07T10:29:19.774Z,94501.42
2022-10-07T10:34:57.931Z,94496.30
2022-10-07T10:40:32.768Z,94494.74
2022-10-07T10:46:17.373Z,94486.62
2022-10-07T10:51:44.194Z,94477.40
2022-10-07T10:57:03.959Z,94472.33
2022-10-07T11:02:44.801Z,94462.14
2022-10-07T11:08:01.887Z,94454.77
2022-10-07T11:13:29.722Z,94443.92
2022-10-07T11:18:46.350Z,94437.45
2022-10-07T11:24:41.174Z,94426.66
2022-10-07T11:30:19.032Z,94420.83
2022-10-07T11:35:35.682Z,94410.71
2022-10-07T11:40:48.837Z,94408.82
2022-10-07T11:46:30.903Z,94399.97
2022-10-07T11:51:50.387Z,94386.05
2022-10-07T11:57:01.812Z,94381.23
2022-10-07T12:02:34.339Z,94371.27
2022-10-07T12:08:02.651Z,94369.02
2022-10-07T12:13:21.565Z,94362.21
2022-10-07T12:18:32.328Z,94356.34
2022-10-07T12:23:43.250Z,94344.55
2022-10-07T12:28:54.412Z,94339.82
2022-10-07T12:34:11.909Z,94334.17
2022-10-07T12:39:41.176Z,94326.01
2022-10-07T12:44:52.539Z,94321.84
2022-10-07T12:50:04.977Z,94318.68
2022-10-07T12:55:29.454Z,94312.28
2022-10-07T13:00:36.317Z,94302.12
2022-10-07T13:06:13.694Z,94290.55
2022-10-07T13:11:52.314Z,94292.31
2022-10-07T13:17:26.419Z,94285.83
2022-10-07T13:22:39.892Z,94275.17
2022-10-07T13:27:54.919Z,94271.25
2022-10-07T13:33:27.727Z,94268.19
2022-10-07T13:38:37.974Z,94254.36
2022-10-07T13:43:54.528Z,94251.48
2022-10-07T13:49:03.543Z,94241.27
2022-10-07T13:54:35.197Z,94231.81
2022-10-07T13:59:42.033Z,94232.86
2022-10-07T14:05:05.584Z,94226.06
2022-10-07T14:10:14.028Z,94218.73
2022-10-07T14:15:28.703Z,94215.23
2022-10-07T14:20:45.332Z,94217.50
2022-10-07T14:26:02.068Z,94210.61
2022-10-07T14:31:39.869Z,94205.52
2022-10-07T14:37:21.078Z,94200.03
2022-10-07T14:42:35.866Z,94191.55
2022-10-07T14:47:44.106Z,94193.63
2022-10-07T14:52:56.703Z,94183.88
2022-10-07T14:58:08.918Z,94190.88
2022-10-07T15:03:17.287Z,94189.78
2022-10-07T15:08:26.347Z,94188.62
2022-10-07T15:13:35.698Z,94188.59
2022-10-07T15:18:52.131Z,94182.53
2022-10-07T15:23:58.126Z,94185.75
2022-10-07T15:29:06.917Z,94185.01
2022-10-07T15:34:15.993Z,94180.30
2022-10-07T15:39:26.366Z,94173.97
2022-10-07T15:44:33.131Z,94175.53
2022-10-07T15:49:44.333Z,94171.17
2022-10-07T15:54:55.082Z,94179.59
2022-10-07T16:00:03.955Z,94178.37
2022-10-07T16:05:13.930Z,94176.73
2022-10-07T16:10:20.857Z,94179.03
2022-10-07T16:15:27.536Z,94180.38
2022-10-07T16:20:36.846Z,94178.83
2022-10-07T16:25:47.831Z,94175.96
2022-10-07T16:30:54.727Z,94178.80
2022-10-07T16:36:07.685Z,94180.14
2022-10-07T16:41:19.701Z,94188.45
2022-10-07T16:46:32.057Z,94179.05
2022-10-07T16:51:41.242Z,94181.89
2022-10-07T16:56:57.321Z,94183.98
2022-10-07T17:02:06.622Z,94191.41
2022-10-07T17:07:15.212Z,94193.92
2022-10-07T17:12:23.432Z,94190.14
2022-10-07T17:17:31.801Z,94194.59
2022-10-07T17:22:38.326Z,94195.46
2022-10-07T17:27:45.270Z,94191.56
2022-10-07T17:32:55.353Z,94193.66
2022-10-07T17:38:06.402Z,94194.30
2022-10-07T17:43:13.022Z,94188.55
2022-10-07T17:48:20.541Z,94191.66
2022-10-07T17:53:28.289Z,94192.50
2022-10-07T17:58:35.086Z,94185.26
2022-10-07T18:03:49.572Z,94185.11
2022-10-07T18:09:00.574Z,94186.02
2022-10-07T18:14:27.717Z,94179.99
2022-10-07T18:19:36.994Z,94185.70
2022-10-07T18:24:44.742Z,94172.56
2022-10-07T18:29:52.083Z,94167.05
2022-10-07T18:35:01.813Z,94176.69
2022-10-07T18:40:12.287Z,94170.89
2022-10-07T18:45:19.071Z,94166.70
2022-10-07T18:50:31.324Z,94163.78
2022-10-07T18:55:40.961Z,94165.48
2022-10-07T19:00:47.811Z,94157.64
2022-10-07T19:05:54.859Z,94157.39
2022-10-07T19:11:09.209Z,94158.89
2022-10-07T19:16:26.644Z,94151.04
2022-10-07T19:21:36.010Z,94152.08
2022-10-07T19:26:48.484Z,94147.83
2022-10-07T19:31:55.349Z,94145.48
2022-10-07T19:37:02.313Z,94140.17
2022-10-07T19:42:09.933Z,94144.69
2022-10-07T19:47:19.349Z,94146.48
2022-10-07T19:52:28.049Z,94137.28
2022-10-07T19:57:37.826Z,94142.17
2022-10-07T20:02:50.833Z,94138.17
2022-10-07T20:08:06.790Z,94135.50
2022-10-07T20:13:19.313Z,94127.47
2022-10-07T20:18:30.301Z,94123.41
2022-10-07T20:23:59.758Z,94121.87
2022-10-07T20:29:11.173Z,94125.45
2022-10-07T20:34:20.486Z,94117.72
2022-10-07T20:39:45.841Z,94113.75
2022-10-07T20:44:55.402Z,94117.17
2022-10-07T20:50:10.420Z,94117.01
2022-10-07T20:55:15.867Z,94107.41
2022-10-07T21:00:23.008Z,94105.81
2022-10-07T21:05:30.565Z,94101.42
2022-10-07T21:10:39.327Z,94101.42
2022-10-07T21:15:48.537Z,94101.17
2022-10-07T21:20:57.111Z,94099.23
2022-10-07T21:26:08.074Z,94094.45
2022-10-07T21:31:18.142Z,94086.55
2022-10-07T21:36:30.086Z,94088.78
2022-10-07T21:41:41.091Z,94081.34
2022-10-07T21:46:49.934Z,94076.27
2022-10-07T21:51:58.447Z,94072.45
2022-10-07T21:57:06.721Z,94068.45
2022-10-07T22:02:15.218Z,94065.20
2022-10-07T22:07:40.023Z,94059.98
2022-10-07T22:12:47.451Z,94052.53
2022-10-07T22:17:56.684Z,94043.23
2022-10-07T22:23:08.167Z,94039.48
2022-10-07T22:28:15.968Z,94030.48
2022-10-07T22:33:22.633Z,94030.70
2022-10-07T22:38:32.500Z,94019.53
2022-10-07T22:43:45.362Z,94017.23
2022-10-07T22:48:53.778Z,94017.63
2022-10-07T22:54:02.284Z,94016.30
2022-10-07T22:59:12.773Z,94007.30
2022-10-07T23:04:24.971Z,94003.33
2022-10-07T23:09:33.640Z,93999.06
2022-10-07T23:14:46.086Z,93999.32
2022-10-07T23:19:52.947Z,93993.25
2022-10-07T23:25:02.168Z,93989.53
2022-10-07T23:30:13.082Z,93989.81
2022-10-07T23:35:21.321Z,93981.30
2022-10-07T23:40:28.115Z,93972.26
2022-10-07T23:45:35.717Z,93979.45
2022-10-07T23:50:52.782Z,93970.33
2022-10-07T23:56:00.376Z,93975.63
